Time;durP1;ratioP1;P1;durP2;ratioP2;P2;SDS_P1;SDS_P2;PMS_P1;PMS_P2;Temp;Humidity;BMP_temperature;BMP_pressure;BME280_temperature;BME280_humidity;BME280_pressure;Samples;Min_cycle;Max_cycle;Signal;HPM_P1;HPM_P2
2023/10/19 00:01:17;;;;;;;19.83;15.52;;;;;;;10.29;100.00;99209.72;5029157;28;20120;-75
2023/10/19 00:03:45;;;;;;;21.27;16.00;;;;;;;10.31;100.00;99207.84;5013751;28;20672;-75
2023/10/19 00:06:12;;;;;;;21.52;15.93;;;;;;;10.33;100.00;99212.09;5019043;28;20041;-74
2023/10/19 00:08:46;;;;;;;22.95;15.50;;;;;;;10.34;100.00;99211.16;5023986;28;20054;-76
2023/10/19 00:11:22;;;;;;;22.48;15.65;;;;;;;10.35;100.00;99210.22;5029205;28;20151;-74
2023/10/19 00:13:57;;;;;;;21.90;16.35;;;;;;;10.37;100.00;99207.50;5020919;28;20686;-74
2023/10/19 00:16:33;;;;;;;21.42;15.40;;;;;;;10.36;100.00;99200.53;5038506;28;20132;-76
2023/10/19 00:19:03;;;;;;;22.20;16.70;;;;;;;10.36;100.00;99197.91;5008338;28;20046;-77
2023/10/19 00:21:36;;;;;;;27.60;18.05;;;;;;;10.35;100.00;99204.09;5010614;28;20065;-76
2023/10/19 00:24:05;;;;;;;26.50;17.92;;;;;;;10.34;100.00;99190.09;5007757;28;20076;-76
2023/10/19 00:26:32;;;;;;;25.75;17.23;;;;;;;10.39;100.00;99197.78;5017379;28;20050;-74
2023/10/19 00:29:08;;;;;;;27.08;17.88;;;;;;;10.43;100.00;99196.66;5026015;28;20524;-78
2023/10/19 00:31:40;;;;;;;29.60;17.90;;;;;;;10.46;100.00;99185.94;5024179;28;20041;-78
2023/10/19 00:34:07;;;;;;;26.27;17.95;;;;;;;10.47;100.00;99187.66;5033267;28;20045;-78
2023/10/19 00:36:38;;;;;;;25.98;17.75;;;;;;;10.50;100.00;99190.13;5022840;28;20045;-80
2023/10/19 00:39:15;;;;;;;23.15;16.98;;;;;;;10.54;100.00;99194.25;5020297;28;20046;-79
2023/10/19 00:41:43;;;;;;;23.50;18.23;;;;;;;10.58;100.00;99200.22;5029463;28;20070;-79
2023/10/19 00:44:11;;;;;;;25.00;17.65;;;;;;;10.63;100.00;99194.69;5037841;28;20104;-77
2023/10/19 00:49:14;;;;;;;25.48;16.67;;;;;;;10.67;100.00;99199.72;5007865;28;20160;-77
2023/10/19 00:52:10;;;;;;;24.97;18.03;;;;;;;10.71;100.00;99205.66;5006638;28;20046;-77
2023/10/19 00:57:32;;;;;;;24.73;17.27;;;;;;;10.81;100.00;99204.19;5024038;28;20481;-76
2023/10/19 01:00:11;;;;;;;23.58;16.33;;;;;;;10.84;100.00;99203.16;5026796;28;20099;-77
2023/10/19 01:02:45;;;;;;;24.45;17.13;;;;;;;10.88;100.00;99205.53;5007073;28;20044;-76
2023/10/19 01:05:13;;;;;;;22.60;17.50;;;;;;;10.93;100.00;99201.78;5023760;28;20041;-76
2023/10/19 01:07:41;;;;;;;25.65;18.63;;;;;;;10.95;100.00;99198.13;5009097;28;20046;-76
2023/10/19 01:10:11;;;;;;;29.23;18.98;;;;;;;10.99;100.00;99190.88;5005877;28;20048;-75
2023/10/19 01:12:39;;;;;;;28.38;19.30;;;;;;;11.01;100.00;99183.72;5022779;28;20497;-78
2023/10/19 01:15:23;;;;;;;26.77;18.58;;;;;;;11.02;100.00;99178.34;5020545;28;20517;-78
2023/10/19 01:17:58;;;;;;;26.40;18.25;;;;;;;11.04;100.00;99175.63;5037863;28;20107;-78
2023/10/19 01:23:09;;;;;;;25.52;19.00;;;;;;;11.09;100.00;99180.66;5024521;28;20041;-79
2023/10/19 01:25:40;;;;;;;28.50;19.50;;;;;;;11.09;100.00;99181.47;5004637;28;20095;-78
2023/10/19 01:28:10;;;;;;;25.00;17.77;;;;;;;11.12;100.00;99178.66;5008530;28;20107;-78
2023/10/19 01:30:38;;;;;;;25.13;18.42;;;;;;;11.14;100.00;99165.38;5009649;28;20045;-77
2023/10/19 01:33:12;;;;;;;26.30;17.88;;;;;;;11.16;100.00;99177.53;5015028;28;20077;-77
2023/10/19 01:36:26;;;;;;;25.83;18.02;;;;;;;11.19;100.00;99172.09;5021284;28;20049;-77
2023/10/19 01:38:31;;;;;;;27.98;18.30;;;;;;;11.23;100.00;99169.28;5012567;28;20531;-77
2023/10/19 01:41:26;;;;;;;29.98;19.23;;;;;;;11.24;100.00;99163.91;5026044;28;20048;-77
2023/10/19 01:44:01;;;;;;;24.13;17.10;;;;;;;11.26;100.00;99179.63;5009018;28;20046;-77
2023/10/19 01:46:33;;;;;;;23.35;16.48;;;;;;;11.30;100.00;99170.59;5026567;28;20239;-76
2023/10/19 01:49:04;;;;;;;24.02;17.55;;;;;;;11.31;100.00;99170.50;5019306;28;20049;-77
2023/10/19 01:51:38;;;;;;;25.63;17.17;;;;;;;11.32;100.00;99172.19;5018114;28;20132;-76
2023/10/19 01:54:07;;;;;;;22.75;16.95;;;;;;;11.34;100.00;99161.56;5020681;28;20064;-75
2023/10/19 01:56:35;;;;;;;22.35;16.10;;;;;;;11.39;100.00;99175.31;5013436;28;20041;-76
2023/10/19 01:59:04;;;;;;;24.17;15.25;;;;;;;11.40;100.00;99166.47;5026053;28;20120;-78
2023/10/19 02:01:32;;;;;;;23.27;16.42;;;;;;;11.43;100.00;99158.38;5010862;28;20768;-76
2023/10/19 02:04:05;;;;;;;25.00;16.80;;;;;;;11.45;100.00;99158.28;5012247;28;20053;-77
2023/10/19 02:06:40;;;;;;;23.23;16.23;;;;;;;11.48;100.00;99158.94;5023945;28;20731;-76
2023/10/19 02:11:58;;;;;;;26.77;17.83;;;;;;;11.54;100.00;99149.78;5024677;28;20033;-76
2023/10/19 02:14:30;;;;;;;23.67;17.08;;;;;;;11.55;100.00;99146.22;5020423;28;20072;-76
2023/10/19 02:17:01;;;;;;;22.83;16.52;;;;;;;11.58;100.00;99155.72;5018272;28;20048;-76
2023/10/19 02:19:29;;;;;;;24.02;16.55;;;;;;;11.61;100.00;99152.91;5004744;28;20046;-78
2023/10/19 02:22:03;;;;;;;25.08;15.18;;;;;;;11.63;100.00;99149.22;5028636;28;20091;-78
2023/10/19 02:24:31;;;;;;;22.80;15.95;;;;;;;11.66;100.00;99153.44;5005687;28;20050;-78
2023/10/19 02:27:00;;;;;;;21.45;16.05;;;;;;;11.70;100.00;99146.22;5036689;28;20113;-78
2023/10/19 02:29:28;;;;;;;25.23;16.20;;;;;;;11.72;100.00;99147.81;5038276;28;20564;-77
2023/10/19 02:31:56;;;;;;;20.10;15.35;;;;;;;11.75;100.00;99144.97;5013790;28;20049;-78
2023/10/19 02:34:24;;;;;;;23.70;15.40;;;;;;;11.78;100.00;99147.41;5017065;28;20553;-78
2023/10/19 02:36:51;;;;;;;21.63;15.75;;;;;;;11.80;100.00;99147.34;5027437;28;20058;-77
2023/10/19 02:39:18;;;;;;;22.45;14.52;;;;;;;11.82;100.00;99132.22;5030466;28;20100;-79
2023/10/19 02:41:48;;;;;;;21.52;14.63;;;;;;;11.86;100.00;99138.16;5019446;28;20418;-78
2023/10/19 02:44:25;;;;;;;22.15;14.77;;;;;;;11.90;100.00;99142.31;5018564;28;20056;-77
2023/10/19 02:47:05;;;;;;;19.20;13.85;;;;;;;11.95;100.00;99140.25;5005286;28;20045;-78
2023/10/19 02:49:38;;;;;;;19.48;13.50;;;;;;;12.00;100.00;99137.34;5006468;28;20108;-79
2023/10/19 02:52:05;;;;;;;20.23;13.95;;;;;;;12.02;100.00;99135.44;5018529;28;20454;-78
2023/10/19 02:54:35;;;;;;;22.52;14.32;;;;;;;12.04;100.00;99141.47;5021864;28;20143;-79
2023/10/19 02:57:06;;;;;;;19.17;13.82;;;;;;;12.08;100.00;99138.53;5023557;28;20107;-78
2023/10/19 02:59:35;;;;;;;17.48;12.90;;;;;;;12.09;100.00;99134.94;5021687;28;20049;-77
2023/10/19 03:04:41;;;;;;;21.83;13.88;;;;;;;12.15;100.00;99140.81;5019400;28;20037;-75
2023/10/19 03:07:12;;;;;;;18.83;12.27;;;;;;;12.16;100.00;99135.41;5005109;28;20125;-75
2023/10/19 03:09:48;;;;;;;18.92;12.70;;;;;;;12.17;100.00;99134.47;5005636;28;20058;-76
2023/10/19 03:12:16;;;;;;;22.27;13.32;;;;;;;12.19;100.00;99131.72;5013745;28;20046;-76
2023/10/19 03:14:47;;;;;;;18.17;12.32;;;;;;;12.21;100.00;99135.94;5026594;28;20045;-76
2023/10/19 03:17:15;;;;;;;17.63;12.48;;;;;;;12.22;100.00;99121.81;5019983;28;20050;-76
2023/10/19 03:19:44;;;;;;;19.60;12.98;;;;;;;12.24;100.00;99114.63;5039534;28;20049;-75
2023/10/19 03:22:11;;;;;;;22.02;13.25;;;;;;;12.25;100.00;99118.13;5013007;28;20045;-75
2023/10/19 03:24:43;;;;;;;17.95;12.60;;;;;;;12.27;100.00;99117.09;5026109;28;20046;-76
2023/10/19 03:27:16;;;;;;;18.17;13.10;;;;;;;12.30;100.00;99121.31;5028948;28;20052;-76
2023/10/19 03:29:59;;;;;;;22.63;12.55;;;;;;;12.34;100.00;99119.31;5008231;28;20049;-75
2023/10/19 03:32:26;;;;;;;16.63;12.15;;;;;;;12.35;100.00;99107.81;5016619;28;20042;-75
2023/10/19 03:34:56;;;;;;;19.58;12.20;;;;;;;12.38;100.00;99115.53;5014741;28;20049;-76
2023/10/19 03:37:30;;;;;;;18.65;12.25;;;;;;;12.40;100.00;99111.00;5022231;28;20532;-74
2023/10/19 03:39:58;;;;;;;21.85;11.57;;;;;;;12.43;100.00;99113.44;5040790;28;20041;-75
2023/10/19 03:42:27;;;;;;;20.48;12.23;;;;;;;12.46;100.00;99109.75;5008213;28;20038;-75
2023/10/19 03:44:55;;;;;;;15.00;10.93;;;;;;;12.49;100.00;99112.19;5038508;28;20572;-76
2023/10/19 03:47:26;;;;;;;17.05;11.50;;;;;;;12.52;100.00;99112.81;5037776;28;20116;-78
2023/10/19 03:49:53;;;;;;;15.15;11.18;;;;;;;12.55;100.00;99112.63;5030797;28;20371;-77
2023/10/19 03:52:20;;;;;;;13.32;10.38;;;;;;;12.56;100.00;99093.19;5017865;28;20045;-78
2023/10/19 03:54:49;;;;;;;15.13;10.95;;;;;;;12.61;100.00;99098.16;5039060;28;20042;-78
2023/10/19 03:57:29;;;;;;;15.93;10.52;;;;;;;12.63;100.00;99098.03;5018726;28;20409;-78
2023/10/19 03:59:57;;;;;;;13.93;10.55;;;;;;;12.65;100.00;99090.88;5008080;28;20041;-77
2023/10/19 04:02:27;;;;;;;13.63;9.60;;;;;;;12.67;100.00;99089.81;5010766;28;20046;-77
2023/10/19 04:04:57;;;;;;;13.55;9.95;;;;;;;12.69;100.00;99087.91;5013732;28;20129;-78
2023/10/19 04:07:25;;;;;;;14.05;10.63;;;;;;;12.71;100.00;99080.72;5007304;28;20045;-78
2023/10/19 04:12:42;;;;;;;14.93;10.15;;;;;;;12.77;100.00;99079.47;5014154;28;20045;-78
2023/10/19 04:17:42;;;;;;;14.02;9.48;;;;;;;12.82;100.00;99084.44;5043039;28;20598;-78
2023/10/19 04:22:49;;;;;;;16.08;9.88;;;;;;;12.89;100.00;99088.34;5024834;28;20124;-78
2023/10/19 04:25:18;;;;;;;11.45;9.20;;;;;;;12.91;100.00;99083.00;5024026;28;20036;-78
2023/10/19 04:27:48;;;;;;;11.27;8.63;;;;;;;12.93;100.00;99086.34;5028161;28;20139;-77
2023/10/19 04:30:16;;;;;;;10.85;8.43;;;;;;;12.96;100.00;99080.84;5021424;28;20055;-77
2023/10/19 04:32:45;;;;;;;13.07;8.15;;;;;;;12.98;100.00;99076.31;5022592;28;20052;-77
2023/10/19 04:35:14;;;;;;;12.25;7.78;;;;;;;13.00;100.00;99072.59;5011004;28;20037;-76
2023/10/19 04:37:44;;;;;;;12.32;7.30;;;;;;;13.03;100.00;99079.47;5020270;28;20585;-77
2023/10/19 04:40:12;;;;;;;11.45;7.03;;;;;;;13.05;100.00;99083.75;5025161;28;20041;-76
2023/10/19 04:42:39;;;;;;;10.18;6.30;;;;;;;13.08;100.00;99079.16;5038757;28;20095;-75
2023/10/19 04:45:07;;;;;;;11.75;6.63;;;;;;;13.07;100.00;99075.69;5022688;28;20049;-76
2023/10/19 04:47:35;;;;;;;8.45;6.13;;;;;;;13.11;100.00;99081.59;5035614;28;20061;-76
2023/10/19 04:50:05;;;;;;;8.75;6.15;;;;;;;13.13;100.00;99085.00;5023336;28;20052;-76
2023/10/19 04:52:33;;;;;;;10.50;5.85;;;;;;;13.16;100.00;99088.28;5023008;28;20033;-76
2023/10/19 04:55:01;;;;;;;6.95;5.57;;;;;;;13.18;100.00;99085.50;5022169;28;20049;-76
2023/10/19 04:57:28;;;;;;;12.15;5.45;;;;;;;13.21;100.00;99085.31;5032296;28;20103;-77
2023/10/19 04:59:57;;;;;;;8.20;5.25;;;;;;;13.21;100.00;99085.31;5021361;28;20048;-77
2023/10/19 05:02:24;;;;;;;12.80;5.65;;;;;;;13.22;100.00;99087.00;5004588;28;20069;-77
2023/10/19 05:04:51;;;;;;;10.02;5.30;;;;;;;13.24;100.00;99089.53;5020919;28;20045;-78
2023/10/19 05:07:18;;;;;;;7.47;5.00;;;;;;;13.24;100.00;99089.53;5039600;28;20053;-78
2023/10/19 05:09:47;;;;;;;7.35;4.97;;;;;;;13.26;100.00;99090.28;5025044;28;20048;-78
2023/10/19 05:12:15;;;;;;;7.68;4.82;;;;;;;13.25;100.00;99088.59;5020480;28;20684;-78
2023/10/19 05:14:43;;;;;;;9.07;4.95;;;;;;;13.23;100.00;99093.16;5026228;28;20120;-77
2023/10/19 05:17:10;;;;;;;6.32;4.07;;;;;;;13.23;100.00;99101.09;5021164;28;20140;-76
2023/10/19 05:19:39;;;;;;;11.07;4.90;;;;;;;13.22;100.00;99110.81;5023503;28;20531;-76
2023/10/19 05:22:09;;;;;;;8.18;4.03;;;;;;;13.20;100.00;99104.78;5020441;28;20046;-78
2023/10/19 05:24:36;;;;;;;7.00;4.30;;;;;;;13.17;100.00;99105.84;5006431;28;20132;-78
2023/10/19 05:27:04;;;;;;;6.68;4.32;;;;;;;13.19;100.00;99098.66;5020146;28;20490;-78
2023/10/19 05:29:35;;;;;;;8.30;4.28;;;;;;;13.18;100.00;99094.31;5026575;28;20505;-78
2023/10/19 05:32:03;;;;;;;7.20;4.05;;;;;;;13.20;100.00;99099.50;5019899;28;20418;-78
2023/10/19 05:34:32;;;;;;;12.57;4.22;;;;;;;13.19;100.00;99105.72;5019265;28;20033;-77
2023/10/19 05:37:02;;;;;;;6.25;3.00;;;;;;;13.19;100.00;99095.16;5023821;28;20481;-76
2023/10/19 05:39:31;;;;;;;8.73;2.92;;;;;;;13.20;100.00;99103.00;5005761;28;20053;-76
2023/10/19 05:42:00;;;;;;;8.30;2.90;;;;;;;13.23;100.00;99103.75;5005473;28;20042;-77
2023/10/19 05:44:31;;;;;;;5.75;2.45;;;;;;;13.25;100.00;99107.09;5010340;28;20096;-76
2023/10/19 05:46:59;;;;;;;6.93;2.90;;;;;;;13.26;100.00;99106.16;5019093;28;20044;-76
2023/10/19 05:49:30;;;;;;;7.40;2.60;;;;;;;13.25;100.00;99107.09;5026133;28;20050;-76
2023/10/19 05:51:58;;;;;;;11.68;2.90;;;;;;;13.27;100.00;99105.22;5011564;28;20042;-76
2023/10/19 05:54:26;;;;;;;7.75;2.72;;;;;;;13.26;100.00;99111.44;5037735;28;20071;-76
2023/10/19 05:56:54;;;;;;;8.23;2.70;;;;;;;13.27;100.00;99108.72;5023319;28;20049;-76
2023/10/19 05:59:23;;;;;;;7.68;2.30;;;;;;;13.29;100.00;99121.84;5024713;28;20111;-77
2023/10/19 06:01:51;;;;;;;10.52;2.45;;;;;;;13.29;100.00;99120.03;5024824;28;20041;-76
2023/10/19 06:04:20;;;;;;;9.55;2.38;;;;;;;13.30;100.00;99124.38;5023900;28;20478;-76
2023/10/19 06:06:48;;;;;;;6.47;2.75;;;;;;;13.31;100.00;99130.53;5030804;28;20387;-75
2023/10/19 06:09:17;;;;;;;8.82;2.20;;;;;;;13.32;100.00;99126.91;5013366;28;20049;-75
2023/10/19 06:11:45;;;;;;;7.93;2.58;;;;;;;13.34;100.00;99130.28;5028171;28;20055;-75
2023/10/19 06:14:13;;;;;;;7.25;2.42;;;;;;;13.35;100.00;99132.84;5024972;28;20046;-77
2023/10/19 06:16:40;;;;;;;8.32;2.22;;;;;;;13.34;100.00;99131.16;5022314;28;20045;-77
2023/10/19 06:19:08;;;;;;;8.27;2.22;;;;;;;13.35;100.00;99132.84;5008117;28;20509;-76
2023/10/19 06:21:36;;;;;;;8.38;2.60;;;;;;;13.35;100.00;99127.56;5035603;28;20049;-78
2023/10/19 06:24:04;;;;;;;9.82;2.00;;;;;;;13.38;100.00;99134.44;5009635;28;20072;-77
2023/10/19 06:26:31;;;;;;;9.95;2.17;;;;;;;13.38;100.00;99129.13;5023796;28;20045;-77
2023/10/19 06:29:02;;;;;;;11.60;2.50;;;;;;;13.40;100.00;99129.03;5019022;28;20133;-76
2023/10/19 06:31:29;;;;;;;6.75;2.25;;;;;;;13.40;100.00;99131.69;5005076;28;20132;-77
2023/10/19 06:33:57;;;;;;;9.57;2.45;;;;;;;13.42;100.00;99135.09;5012709;28;20046;-76
2023/10/19 06:36:25;;;;;;;10.00;2.45;;;;;;;13.43;100.00;99142.06;5015118;28;20046;-76
2023/10/19 06:38:54;;;;;;;10.88;2.30;;;;;;;13.46;100.00;99139.22;5010232;28;20117;-74
2023/10/19 06:41:22;;;;;;;9.20;2.17;;;;;;;13.49;100.00;99139.84;5019445;28;20142;-74
2023/10/19 06:43:49;;;;;;;13.05;2.55;;;;;;;13.54;100.00;99142.19;5022355;28;20092;-72
2023/10/19 06:46:17;;;;;;;9.32;2.30;;;;;;;13.60;100.00;99147.03;5020168;28;20116;-73
2023/10/19 06:48:45;;;;;;;7.20;2.00;;;;;;;13.64;100.00;99145.88;5034621;28;20145;-73
2023/10/19 06:51:12;;;;;;;8.40;2.47;;;;;;;13.70;100.00;99141.97;5016579;28;20091;-73
2023/10/19 06:53:39;;;;;;;8.10;2.50;;;;;;;13.74;100.00;99150.53;5016654;28;20120;-75
2023/10/19 06:56:06;;;;;;;9.95;2.80;;;;;;;13.78;100.00;99147.56;5034337;28;20658;-74
2023/10/19 06:58:34;;;;;;;10.32;2.40;;;;;;;13.81;100.00;99154.44;5023887;28;20045;-74
2023/10/19 07:01:08;;;;;;;9.77;2.40;;;;;;;13.86;100.00;99162.03;5020117;28;20060;-74
2023/10/19 07:03:35;;;;;;;13.13;2.50;;;;;;;13.88;100.00;99155.72;5014330;28;20057;-74
2023/10/19 07:06:03;;;;;;;10.30;2.30;;;;;;;13.93;100.00;99160.69;5023918;28;20041;-74
2023/10/19 07:08:36;;;;;;;9.30;2.90;;;;;;;13.98;100.00;99163.84;5017793;28;20045;-74
2023/10/19 07:11:03;;;;;;;9.20;2.92;;;;;;;14.02;100.00;99172.41;5046145;28;20048;-74
2023/10/19 07:13:33;;;;;;;8.32;3.58;;;;;;;14.05;100.00;99169.53;5027475;28;20056;-74
2023/10/19 07:16:03;;;;;;;12.48;4.13;;;;;;;14.06;100.00;99164.13;5020014;28;21647;-74
2023/10/19 07:18:30;;;;;;;8.80;4.30;;;;;;;14.09;100.00;99169.22;5023069;28;20037;-74
2023/10/19 07:21:09;;;;;;;13.20;6.93;;;;;;;14.11;100.00;99169.97;5026759;28;20080;-74
2023/10/19 07:23:40;;;;;;;10.82;7.97;;;;;;;14.18;100.00;99173.03;5020272;28;20050;-74
2023/10/19 07:26:08;;;;;;;12.77;6.28;;;;;;;14.23;100.00;99167.38;5020779;28;20104;-74
2023/10/19 07:28:35;;;;;;;14.25;6.70;;;;;;;14.31;100.00;99174.75;5021458;28;20045;-74
2023/10/19 07:31:12;;;;;;;25.25;14.63;;;;;;;14.36;100.00;99177.94;5022504;28;20167;-74
2023/10/19 07:33:45;;;;;;;16.42;8.65;;;;;;;14.42;100.00;99180.13;5021892;28;20065;-74
2023/10/19 07:36:18;;;;;;;24.53;13.13;;;;;;;14.49;100.00;99181.41;5020726;28;20405;-73
2023/10/19 07:38:47;;;;;;;19.90;10.05;;;;;;;14.55;100.00;99180.09;5016981;28;20060;-73
2023/10/19 07:41:16;;;;;;;20.45;10.27;;;;;;;14.59;100.00;99193.03;5022341;28;20055;-74
2023/10/19 07:43:45;;;;;;;18.02;9.25;;;;;;;14.62;100.00;99184.00;5024769;28;20765;-73
2023/10/19 07:46:12;;;;;;;16.52;6.28;;;;;;;14.70;100.00;99188.78;5026974;28;20045;-73
2023/10/19 07:48:40;;;;;;;11.35;4.53;;;;;;;14.75;100.00;99176.84;5037237;28;20056;-73
2023/10/19 07:51:11;;;;;;;11.82;5.05;;;;;;;14.79;100.00;99182.78;5025672;28;20136;-74
2023/10/19 07:53:38;;;;;;;12.13;4.10;;;;;;;14.83;100.00;99181.56;5018457;28;20120;-75
2023/10/19 07:56:05;;;;;;;8.63;4.20;;;;;;;14.88;100.00;99184.75;5028232;28;20148;-74
2023/10/19 07:58:34;;;;;;;10.82;3.67;;;;;;;14.91;100.00;99181.84;5027612;28;20094;-73
2023/10/19 08:01:02;;;;;;;12.20;4.20;;;;;;;14.91;100.00;99178.34;5022669;28;20156;-73
2023/10/19 08:03:29;;;;;;;8.38;3.50;;;;;;;14.89;100.00;99174.97;5019877;28;20045;-73
2023/10/19 08:05:57;;;;;;;8.98;3.40;;;;;;;14.86;100.00;99181.34;5024640;28;20033;-73
2023/10/19 08:08:24;;;;;;;7.60;3.13;;;;;;;14.82;100.00;99171.91;5027396;28;20120;-72
2023/10/19 08:10:52;;;;;;;18.40;3.40;;;;;;;14.79;100.00;99176.63;5017508;28;20061;-72
2023/10/19 08:13:22;;;;;;;11.40;3.85;;;;;;;14.77;100.00;99171.44;5024244;28;20037;-72
2023/10/19 08:15:53;;;;;;;6.50;3.13;;;;;;;14.79;100.00;99169.50;5019915;28;20045;-71
2023/10/19 08:18:20;;;;;;;8.20;3.10;;;;;;;14.80;100.00;99168.56;5025293;28;20051;-72
2023/10/19 08:20:49;;;;;;;8.82;2.97;;;;;;;14.86;100.00;99167.22;5029437;28;20457;-74
2023/10/19 08:23:23;;;;;;;9.05;3.05;;;;;;;14.88;100.00;99157.34;5046846;28;20615;-73
2023/10/19 08:25:50;;;;;;;9.90;2.50;;;;;;;14.93;100.00;99163.19;5045837;28;20048;-73
2023/10/19 08:28:24;;;;;;;8.48;2.58;;;;;;;14.98;100.00;99162.81;5045557;28;20111;-73
2023/10/19 08:31:00;;;;;;;6.90;2.60;;;;;;;15.01;100.00;99159.91;5025664;28;20045;-73
2023/10/19 08:33:29;;;;;;;8.48;2.17;;;;;;;15.05;100.00;99149.00;5024112;28;20569;-73
2023/10/19 08:35:56;;;;;;;5.72;2.17;;;;;;;15.09;100.00;99148.72;5025666;28;20061;-74
2023/10/19 08:38:24;;;;;;;8.82;2.70;;;;;;;15.12;100.00;99144.03;5041314;28;20041;-74
2023/10/19 08:40:51;;;;;;;9.30;2.50;;;;;;;15.15;100.00;99151.78;5041774;28;20065;-74
2023/10/19 08:43:19;;;;;;;11.05;2.45;;;;;;;15.20;100.00;99152.28;5025987;28;20063;-74
2023/10/19 08:45:46;;;;;;;10.63;2.97;;;;;;;15.29;100.00;99152.53;5042301;28;20049;-73
2023/10/19 08:48:14;;;;;;;10.20;2.53;;;;;;;15.36;100.00;99151.91;5024830;28;20624;-74
2023/10/19 08:50:41;;;;;;;7.47;2.53;;;;;;;15.43;100.00;99148.81;5036704;28;20053;-74
2023/10/19 08:53:13;;;;;;;8.30;3.15;;;;;;;15.46;100.00;99140.59;5046323;28;20240;-74
2023/10/19 08:55:41;;;;;;;15.35;2.95;;;;;;;15.46;100.00;99138.78;5028910;28;20126;-73
2023/10/19 08:58:17;;;;;;;10.27;2.90;;;;;;;15.45;100.00;99118.50;5025569;28;20046;-74
2023/10/19 09:00:54;;;;;;;8.43;3.10;;;;;;;15.46;100.00;99130.00;5025582;28;20045;-73
2023/10/19 09:03:25;;;;;;;12.90;3.15;;;;;;;15.45;100.00;99128.28;5017297;28;20121;-73
2023/10/19 09:05:54;;;;;;;12.75;3.05;;;;;;;15.42;100.00;99134.66;5019907;28;20056;-73
2023/10/19 09:08:22;;;;;;;10.05;2.90;;;;;;;15.45;100.00;99136.25;5025010;28;20046;-73
2023/10/19 09:10:55;;;;;;;9.20;3.10;;;;;;;15.51;100.00;99144.59;5006285;28;20076;-74
2023/10/19 09:13:22;;;;;;;11.40;3.13;;;;;;;15.62;100.00;99133.13;5015770;28;20049;-73
2023/10/19 09:15:55;;;;;;;11.75;3.55;;;;;;;15.75;100.00;99133.00;5027284;28;20560;-74
2023/10/19 09:18:28;;;;;;;7.22;2.95;;;;;;;15.91;100.00;99135.31;5021420;28;20037;-73
2023/10/19 09:21:07;;;;;;;9.27;2.72;;;;;;;16.06;100.00;99135.06;5027052;28;20041;-74
2023/10/19 09:23:36;;;;;;;10.05;2.70;;;;;;;16.27;100.00;99132.47;5025741;28;20099;-74
2023/10/19 09:26:07;;;;;;;12.90;2.85;;;;;;;16.36;100.00;99130.88;5025847;28;20052;-74
2023/10/19 09:28:37;;;;;;;7.90;2.75;;;;;;;16.44;100.00;99128.44;5025177;28;20045;-74
2023/10/19 09:31:09;;;;;;;8.07;2.28;;;;;;;16.61;100.00;99127.03;5048196;28;20046;-73
2023/10/19 09:33:45;;;;;;;12.47;2.30;;;;;;;16.74;100.00;99130.34;5023412;28;20087;-74
2023/10/19 09:36:15;;;;;;;10.15;2.47;;;;;;;16.71;100.00;99121.78;5025709;28;20065;-72
2023/10/19 09:38:51;;;;;;;8.70;2.80;;;;;;;16.68;100.00;99117.56;5016531;28;20125;-74
2023/10/19 09:41:22;;;;;;;5.35;2.05;;;;;;;16.71;100.00;99119.13;5025640;28;20037;-74
2023/10/19 09:43:51;;;;;;;10.18;2.30;;;;;;;16.71;100.00;99120.00;5025340;28;20042;-74
2023/10/19 09:46:26;;;;;;;7.90;2.60;;;;;;;16.71;100.00;99116.47;5048148;28;20382;-74
2023/10/19 09:48:53;;;;;;;9.52;2.40;;;;;;;16.74;100.00;99119.72;5024693;28;20053;-73
2023/10/19 09:51:23;;;;;;;8.93;2.58;;;;;;;16.76;100.00;99124.94;5027531;28;20072;-74
2023/10/19 09:54:19;;;;;;;7.25;2.33;;;;;;;16.90;100.00;99135.25;5040332;28;20413;-74
2023/10/19 09:56:58;;;;;;;10.35;2.17;;;;;;;17.14;100.00;99128.03;5018556;28;20163;-74
2023/10/19 09:59:33;;;;;;;8.18;2.35;;;;;;;17.28;100.00;99133.00;5023749;28;20095;-74
2023/10/19 10:02:14;;;;;;;11.98;2.83;;;;;;;17.35;100.00;99126.16;5023590;28;20052;-74
2023/10/19 10:04:45;;;;;;;5.68;2.08;;;;;;;17.41;100.00;99123.97;5022803;28;20069;-74
2023/10/19 10:07:15;;;;;;;9.10;2.15;;;;;;;17.35;100.00;99123.50;5024169;28;20037;-74
2023/10/19 10:09:57;;;;;;;;;;;;;;;17.23;100.00;99124.59;5023317;28;20125;-74
2023/10/19 10:12:29;;;;;;;10.60;2.05;;;;;;;17.19;100.00;99121.34;5024911;28;20222;-74
2023/10/19 10:15:07;;;;;;;10.95;2.47;;;;;;;17.18;100.00;99121.44;5037941;28;20110;-73
2023/10/19 10:17:39;;;;;;;9.63;2.38;;;;;;;17.19;100.00;99112.50;5024796;28;20112;-74
2023/10/19 10:20:13;;;;;;;9.70;2.47;;;;;;;17.25;100.00;99111.13;5030887;28;20227;-74
2023/10/19 10:22:44;;;;;;;8.47;2.20;;;;;;;17.35;100.00;99107.53;5044275;28;20049;-74
2023/10/19 10:25:28;;;;;;;13.20;2.22;;;;;;;17.50;100.00;99110.69;5044547;28;20052;-74
2023/10/19 10:27:56;;;;;;;;;;;;;;;17.61;100.00;99114.22;5026102;28;20527;-74
2023/10/19 10:30:23;;;;;;;9.07;2.10;;;;;;;17.77;100.00;99100.41;5043470;28;19924;-74
2023/10/19 10:32:54;;;;;;;11.13;2.17;;;;;;;17.93;100.00;99105.22;5027591;28;20045;-74
2023/10/19 10:35:38;;;;;;;12.02;2.47;;;;;;;18.08;100.00;99097.72;5028234;28;20033;-74
2023/10/19 10:38:14;;;;;;;7.28;2.00;;;;;;;18.16;100.00;99093.38;5042850;28;20041;-74
2023/10/19 10:40:51;;;;;;;6.32;1.73;;;;;;;18.26;100.00;99089.88;5022949;28;20128;-74
2023/10/19 10:43:19;;;;;;;8.07;1.98;;;;;;;18.29;100.00;99087.78;5028335;28;20053;-74
2023/10/19 10:45:46;;;;;;;7.05;1.77;;;;;;;18.32;100.00;99081.31;5035680;28;20048;-74
2023/10/19 10:48:17;;;;;;;7.80;1.83;;;;;;;18.31;100.00;99085.81;5026624;28;20056;-73
2023/10/19 10:50:46;;;;;;;7.40;2.00;;;;;;;18.33;100.00;99088.34;5036023;28;20115;-74
2023/10/19 10:53:16;;;;;;;11.38;2.88;;;;;;;18.36;100.00;99088.06;5028801;28;20041;-73
2023/10/19 10:55:43;;;;;;;7.90;1.85;;;;;;;18.45;100.00;99079.22;5043079;28;20638;-74
2023/10/19 10:58:18;;;;;;;10.18;1.85;;;;;;;18.59;100.00;99090.47;5027029;28;20057;-73
2023/10/19 11:00:51;;;;;;;9.25;1.98;;;;;;;18.62;100.00;99100.84;5042734;28;20360;-74
2023/10/19 11:03:18;;;;;;;6.63;1.47;;;;;;;18.63;100.00;99087.38;5027618;28;20564;-74
2023/10/19 11:05:46;;;;;;;6.90;1.30;;;;;;;18.66;100.00;99086.25;5027346;28;20297;-74
2023/10/19 11:08:21;;;;;;;7.70;1.80;;;;;;;18.65;98.96;99084.56;5026966;28;20077;-74
2023/10/19 11:10:49;;;;;;;8.18;1.60;;;;;;;18.68;99.38;99086.09;5043801;28;20041;-74
2023/10/19 11:13:22;;;;;;;6.90;1.70;;;;;;;18.66;98.60;99083.56;5027413;28;20400;-74
2023/10/19 11:15:56;;;;;;;8.65;1.40;;;;;;;18.71;98.70;99089.34;5028094;28;20068;-74
2023/10/19 11:18:40;;;;;;;6.10;1.60;;;;;;;18.91;97.43;99092.81;5028069;28;20053;-74
2023/10/19 11:21:11;;;;;;;9.15;1.60;;;;;;;18.98;96.29;99084.25;5008356;28;20069;-74
2023/10/19 11:23:45;;;;;;;12.18;1.60;;;;;;;18.95;97.89;99098.75;5026947;28;20041;-74
2023/10/19 11:26:16;;;;;;;;;;;;;;;18.95;99.01;99095.25;5028207;28;20398;-74
2023/10/19 11:28:47;;;;;;;11.05;1.63;;;;;;;19.14;98.03;99091.69;5027197;28;19921;-74
2023/10/19 11:31:22;;;;;;;8.93;1.70;;;;;;;19.37;96.15;99093.03;5041603;28;20156;-74
2023/10/19 11:33:55;;;;;;;10.77;1.98;;;;;;;19.66;94.97;99088.56;5024781;28;20069;-74
2023/10/19 11:36:23;;;;;;;16.43;1.90;;;;;;;19.85;94.00;99079.56;5041488;28;21125;-74
2023/10/19 11:38:52;;;;;;;12.55;2.17;;;;;;;19.99;91.90;99073.75;5041575;28;20045;-74
2023/10/19 11:41:20;;;;;;;17.88;2.80;;;;;;;20.07;89.73;99072.16;5026263;28;20077;-74
2023/10/19 11:43:49;;;;;;;14.50;2.00;;;;;;;19.97;89.76;99065.03;5027846;28;20049;-74
2023/10/19 11:46:18;;;;;;;9.57;1.90;;;;;;;19.76;91.34;99067.09;5026870;28;20532;-74
2023/10/19 11:48:46;;;;;;;8.90;1.75;;;;;;;19.56;89.68;99061.88;5043091;28;20053;-74
2023/10/19 11:51:15;;;;;;;9.52;1.70;;;;;;;19.35;90.35;99060.25;5047122;28;20071;-74
2023/10/19 11:53:42;;;;;;;12.15;1.92;;;;;;;19.23;91.98;99061.41;5063378;28;20048;-74
2023/10/19 11:56:12;;;;;;;10.65;2.00;;;;;;;19.17;92.54;99044.19;5047751;28;20698;-74